Time;durP1;ratioP1;P1;durP2;ratioP2;P2;SDS_P1;SDS_P2;PMS_P1;PMS_P2;Temp;Humidity;BMP_temperature;BMP_pressure;BME280_temperature;BME280_humidity;BME280_pressure;Samples;Min_cycle;Max_cycle;Signal;HPM_P1;HPM_P2
2022/01/07 00:00:28;;;;;;;8.18;2.92;;;;;;;-2.40;79.02;100989.53;5035785;28;20052;-50
2022/01/07 00:02:57;;;;;;;5.82;2.03;;;;;;;-2.42;79.72;100991.13;5040124;28;20057;-49
2022/01/07 00:05:25;;;;;;;7.60;2.13;;;;;;;-2.45;79.57;100991.88;5041318;28;20142;-50
2022/01/07 00:07:53;;;;;;;13.65;3.97;;;;;;;-2.46;79.38;100986.72;5037722;28;20077;-52
2022/01/07 00:10:22;;;;;;;11.93;3.13;;;;;;;-2.49;79.48;100991.66;5043507;28;20048;-51
2022/01/07 00:12:50;;;;;;;9.05;3.58;;;;;;;-2.50;79.21;100983.16;5038626;28;20486;-50
2022/01/07 00:15:17;;;;;;;8.32;2.35;;;;;;;-2.51;79.55;100985.63;5035587;28;20053;-50
2022/01/07 00:17:45;;;;;;;6.97;2.80;;;;;;;-2.53;79.77;100989.75;5036237;28;21167;-51
2022/01/07 00:20:13;;;;;;;8.13;2.88;;;;;;;-2.57;79.52;100987.06;5037675;28;20044;-50
2022/01/07 00:22:41;;;;;;;7.10;2.92;;;;;;;-2.58;80.03;100984.47;5038417;28;20052;-50
2022/01/07 00:25:11;;;;;;;8.38;2.85;;;;;;;-2.59;79.90;100991.22;5042004;28;20048;-50
2022/01/07 00:27:40;;;;;;;7.50;3.17;;;;;;;-2.62;79.98;101003.72;5035686;28;20040;-49
2022/01/07 00:30:10;;;;;;;8.05;3.38;;;;;;;-2.64;80.18;101005.31;5034672;28;20049;-51
2022/01/07 00:32:38;;;;;;;14.10;6.70;;;;;;;-2.64;80.27;101005.31;5040427;28;20063;-50
2022/01/07 00:35:07;;;;;;;19.67;7.72;;;;;;;-2.66;80.42;101006.91;5037846;28;20107;-49
2022/01/07 00:37:35;;;;;;;6.70;2.65;;;;;;;-2.68;80.58;100998.34;5040878;28;20056;-50
2022/01/07 00:40:02;;;;;;;8.98;2.70;;;;;;;-2.69;80.17;101009.28;5039183;28;20435;-51
2022/01/07 00:42:29;;;;;;;6.28;2.72;;;;;;;-2.70;80.51;100994.00;5039697;28;20136;-49
2022/01/07 00:44:58;;;;;;;8.52;2.55;;;;;;;-2.72;80.79;100996.44;5036485;28;20197;-50
2022/01/07 00:47:25;;;;;;;7.88;2.80;;;;;;;-2.74;80.67;100998.03;5036021;28;20402;-50
2022/01/07 00:49:52;;;;;;;6.78;2.70;;;;;;;-2.77;80.70;100994.50;5039657;28;20056;-49
2022/01/07 00:52:19;;;;;;;9.57;3.60;;;;;;;-2.79;81.00;100991.88;5038908;28;20040;-50
2022/01/07 00:54:46;;;;;;;14.50;4.50;;;;;;;-2.79;81.40;100989.34;5042087;28;20444;-50
2022/01/07 00:57:14;;;;;;;10.25;2.85;;;;;;;-2.77;82.14;100986.88;5038722;28;20045;-50
2022/01/07 00:59:42;;;;;;;6.88;3.25;;;;;;;-2.76;82.23;100994.56;5037775;28;20061;-50
2022/01/07 01:02:10;;;;;;;8.02;3.33;;;;;;;-2.74;82.60;100992.97;5044455;28;20501;-50
2022/01/07 01:04:37;;;;;;;9.98;4.72;;;;;;;-2.73;82.48;100987.09;5043274;28;20052;-49
2022/01/07 01:07:05;;;;;;;8.13;2.92;;;;;;;-2.71;82.97;100988.03;5041887;28;20087;-50
2022/01/07 01:09:32;;;;;;;8.95;2.33;;;;;;;-2.71;82.79;100988.03;5039010;28;20048;-49
2022/01/07 01:12:00;;;;;;;11.27;3.30;;;;;;;-2.69;83.12;100991.53;5037199;28;20061;-49
2022/01/07 01:14:28;;;;;;;6.82;2.50;;;;;;;-2.68;82.73;100988.19;5040059;28;20073;-49
2022/01/07 01:16:56;;;;;;;8.80;4.20;;;;;;;-2.69;83.15;100990.66;5041577;28;20045;-50
2022/01/07 01:19:24;;;;;;;9.20;2.92;;;;;;;-2.70;82.87;100974.56;5037445;28;20045;-50
2022/01/07 01:21:52;;;;;;;6.90;3.83;;;;;;;-2.72;82.86;100978.69;5041943;28;20474;-50
2022/01/07 01:24:19;;;;;;;9.70;3.78;;;;;;;-2.73;82.97;100973.53;5034815;28;20057;-50
2022/01/07 01:26:46;;;;;;;6.05;3.00;;;;;;;-2.74;82.84;100977.75;5039012;28;20037;-50
2022/01/07 01:29:13;;;;;;;7.78;3.45;;;;;;;-2.75;83.24;100976.00;5037454;28;20049;-50
2022/01/07 01:31:41;;;;;;;9.20;4.82;;;;;;;-2.72;83.47;100975.28;5038756;28;20266;-50
2022/01/07 01:34:08;;;;;;;8.02;3.88;;;;;;;-2.69;83.42;100970.34;5041905;28;20060;-51
2022/01/07 01:36:37;;;;;;;9.25;3.05;;;;;;;-2.67;82.85;100962.03;5036846;28;20056;-50
2022/01/07 01:39:05;;;;;;;8.80;3.42;;;;;;;-2.64;82.44;100962.16;5035175;28;20148;-51
2022/01/07 01:41:32;;;;;;;7.88;1.77;;;;;;;-2.62;82.35;100958.03;5037885;28;20049;-50
2022/01/07 01:43:59;;;;;;;6.95;1.88;;;;;;;-2.61;82.12;100957.22;5035277;28;20114;-50
2022/01/07 01:46:27;;;;;;;7.18;1.80;;;;;;;-2.61;81.99;100954.69;5034614;28;21228;-49
2022/01/07 01:48:54;;;;;;;7.57;1.90;;;;;;;-2.58;82.06;100969.22;5034056;28;20490;-51
2022/01/07 01:51:21;;;;;;;6.97;2.03;;;;;;;-2.58;81.61;100970.09;5039104;28;20052;-50
2022/01/07 01:53:50;;;;;;;9.82;2.25;;;;;;;-2.60;81.43;100961.53;5037792;28;21655;-48
2022/01/07 01:56:17;;;;;;;8.77;2.25;;;;;;;-2.59;81.77;100962.41;5042357;28;20056;-50
2022/01/07 01:58:44;;;;;;;5.53;1.60;;;;;;;-2.59;81.51;100958.22;5034583;28;20092;-50
2022/01/07 02:01:12;;;;;;;8.23;1.85;;;;;;;-2.61;81.60;100954.69;5039119;28;20278;-50
2022/01/07 02:03:39;;;;;;;4.07;1.65;;;;;;;-2.61;81.55;100956.38;5035407;28;20060;-49
2022/01/07 02:06:06;;;;;;;5.90;1.88;;;;;;;-2.61;81.23;100959.78;5038674;28;20409;-50
2022/01/07 02:08:36;;;;;;;8.75;2.53;;;;;;;-2.62;81.64;100952.09;5037799;28;20062;-49
2022/01/07 02:11:05;;;;;;;5.20;2.17;;;;;;;-2.64;81.43;100953.69;5039949;28;20383;-52
2022/01/07 02:13:32;;;;;;;6.07;2.50;;;;;;;-2.68;81.37;100952.66;5033366;28;20052;-52
2022/01/07 02:15:59;;;;;;;9.52;2.78;;;;;;;-2.69;81.42;100950.94;5038372;28;20064;-50
2022/01/07 02:18:26;;;;;;;9.43;2.83;;;;;;;-2.69;81.29;100950.06;5038124;28;20146;-50
2022/01/07 02:20:55;;;;;;;7.10;2.00;;;;;;;-2.72;81.84;100940.63;5038062;28;20057;-50
2022/01/07 02:23:22;;;;;;;7.65;2.38;;;;;;;-2.75;81.42;100945.56;5044487;28;20052;-53
2022/01/07 02:25:50;;;;;;;6.88;2.10;;;;;;;-2.73;81.56;100943.09;5032557;28;21178;-52
2022/01/07 02:28:18;;;;;;;6.40;1.83;;;;;;;-2.73;81.87;100938.88;5039313;28;20082;-49
2022/01/07 02:30:45;;;;;;;6.85;1.58;;;;;;;-2.73;81.38;100943.97;5036356;28;20465;-49
2022/01/07 02:33:12;;;;;;;5.20;1.77;;;;;;;-2.74;81.47;100939.69;5037482;28;20254;-50
2022/01/07 02:35:45;;;;;;;8.43;2.25;;;;;;;-2.75;81.34;100930.34;5034252;28;20055;-50
2022/01/07 02:38:15;;;;;;;32.28;11.52;;;;;;;-2.76;81.12;100937.88;5046513;28;20055;-49
2022/01/07 02:40:42;;;;;;;4.20;1.83;;;;;;;-2.76;81.42;100943.81;5036585;28;20150;-49
2022/01/07 02:43:10;;;;;;;7.15;2.08;;;;;;;-2.76;81.25;100938.75;5033723;28;20052;-49
2022/01/07 02:45:37;;;;;;;5.10;1.80;;;;;;;-2.77;81.18;100942.06;5034762;28;20067;-50
2022/01/07 02:48:05;;;;;;;5.20;1.85;;;;;;;-2.78;81.21;100940.34;5034836;28;20185;-50
2022/01/07 02:50:35;;;;;;;5.43;1.60;;;;;;;-2.78;81.40;100934.41;5034806;28;20489;-49
2022/01/07 02:53:04;;;;;;;30.75;10.80;;;;;;;-2.80;81.61;100931.78;5040984;28;20041;-50
2022/01/07 02:55:33;;;;;;;13.25;4.28;;;;;;;-2.83;81.53;100941.78;5041404;28;20049;-49
2022/01/07 02:58:00;;;;;;;9.57;2.33;;;;;;;-2.85;81.43;100933.22;5033347;28;20049;-50
2022/01/07 03:00:29;;;;;;;7.30;2.30;;;;;;;-2.86;81.66;100942.50;5033606;28;20056;-50
2022/01/07 03:02:57;;;;;;;17.92;4.55;;;;;;;-2.88;81.60;100933.09;5033375;28;20048;-50
2022/01/07 03:05:25;;;;;;;6.82;1.67;;;;;;;-2.90;82.10;100934.69;5035797;28;20059;-50
2022/01/07 03:07:52;;;;;;;4.65;1.83;;;;;;;-2.88;82.15;100928.00;5031748;28;21743;-50
2022/01/07 03:10:21;;;;;;;8.20;2.03;;;;;;;-2.88;81.84;100928.00;5037211;28;20056;-49
2022/01/07 03:12:50;;;;;;;5.50;1.77;;;;;;;-2.88;81.98;100922.94;5037987;28;20056;-50
2022/01/07 03:15:17;;;;;;;6.32;1.88;;;;;;;-2.88;82.05;100917.84;5037978;28;20052;-48
2022/01/07 03:17:44;;;;;;;8.25;2.75;;;;;;;-2.92;82.16;100918.50;5034233;28;20059;-49
2022/01/07 03:20:15;;;;;;;6.63;1.83;;;;;;;-2.94;82.09;100920.09;5035821;28;20064;-50
2022/01/07 03:22:43;;;;;;;5.72;1.55;;;;;;;-2.95;82.36;100908.22;5034645;28;21972;-52
2022/01/07 03:25:11;;;;;;;10.98;2.30;;;;;;;-2.99;82.66;100913.94;5035595;28;20048;-49
2022/01/07 03:27:38;;;;;;;5.88;1.70;;;;;;;-3.01;82.30;100913.00;5037758;28;20048;-50
2022/01/07 03:30:10;;;;;;;9.15;1.80;;;;;;;-3.04;82.60;100915.38;5042697;28;20478;-51
2022/01/07 03:32:37;;;;;;;7.05;1.92;;;;;;;-3.05;83.20;100911.09;5038268;28;21447;-50
2022/01/07 03:35:06;;;;;;;4.78;1.85;;;;;;;-3.04;83.32;100905.25;5036372;28;20064;-49
2022/01/07 03:37:33;;;;;;;5.50;1.55;;;;;;;-3.03;83.72;100922.19;5034295;28;20056;-52
2022/01/07 03:40:01;;;;;;;8.60;1.90;;;;;;;-3.04;83.63;100915.38;5033369;28;20064;-50
2022/01/07 03:42:28;;;;;;;4.90;1.92;;;;;;;-3.04;83.97;100915.38;5033261;28;20064;-50
2022/01/07 03:44:55;;;;;;;4.22;1.98;;;;;;;-3.06;83.94;100911.91;5031816;28;20057;-50
2022/01/07 03:47:24;;;;;;;8.40;2.08;;;;;;;-3.08;84.51;100906.75;5037724;28;20482;-49
2022/01/07 03:49:51;;;;;;;7.72;2.00;;;;;;;-3.09;84.57;100906.69;5037019;28;20486;-49
2022/01/07 03:52:18;;;;;;;7.78;2.15;;;;;;;-3.09;84.86;100906.69;5033911;28;20049;-50
2022/01/07 03:54:45;;;;;;;9.70;2.45;;;;;;;-3.09;84.32;100909.22;5035224;28;20056;-49
2022/01/07 03:57:12;;;;;;;9.02;2.92;;;;;;;-3.09;84.51;100904.16;5039311;28;20049;-50
2022/01/07 03:59:40;;;;;;;9.05;2.60;;;;;;;-3.12;85.14;100903.97;5039071;28;20049;-49
2022/01/07 04:02:07;;;;;;;9.73;2.65;;;;;;;-3.14;85.14;100911.50;5033717;28;20773;-50
2022/01/07 04:04:36;;;;;;;7.57;3.15;;;;;;;-3.14;85.13;100908.97;5032837;28;20103;-49
2022/01/07 04:07:03;;;;;;;7.78;3.13;;;;;;;-3.18;85.57;100897.81;5032709;28;20564;-49
2022/01/07 04:09:30;;;;;;;17.42;4.25;;;;;;;-3.21;85.74;100902.72;5034488;28;20060;-49
2022/01/07 04:11:59;;;;;;;13.98;3.88;;;;;;;-3.21;86.29;100895.13;5039968;28;20049;-49
2022/01/07 04:14:26;;;;;;;13.45;3.90;;;;;;;-3.22;86.21;100895.03;5038269;28;20056;-49
2022/01/07 04:16:54;;;;;;;12.48;4.55;;;;;;;-3.24;86.50;100894.97;5033002;28;20071;-49
2022/01/07 04:19:21;;;;;;;13.82;4.18;;;;;;;-3.25;87.26;100893.22;5039751;28;20315;-53
2022/01/07 04:21:50;;;;;;;11.52;3.75;;;;;;;-3.24;87.14;100882.28;5035565;28;22164;-50
2022/01/07 04:24:17;;;;;;;11.50;4.35;;;;;;;-3.24;87.15;100891.56;5036480;28;20691;-51
2022/01/07 04:26:45;;;;;;;12.50;3.75;;;;;;;-3.25;86.98;100889.81;5036037;28;20546;-50
2022/01/07 04:29:12;;;;;;;10.82;4.28;;;;;;;-3.27;87.06;100892.28;5038687;28;20056;-49
2022/01/07 04:31:39;;;;;;;11.90;4.18;;;;;;;-3.27;87.29;100887.22;5038919;28;20053;-50
2022/01/07 04:34:06;;;;;;;9.23;4.05;;;;;;;-3.26;87.35;100888.94;5038557;28;20052;-50
2022/01/07 04:36:33;;;;;;;14.35;4.55;;;;;;;-3.26;87.51;100891.47;5036205;28;20642;-50
2022/01/07 04:39:02;;;;;;;9.60;4.15;;;;;;;-3.26;87.69;100891.47;5037340;28;20114;-49
2022/01/07 04:41:29;;;;;;;12.90;5.20;;;;;;;-3.24;87.76;100892.44;5040261;28;20053;-50
2022/01/07 04:43:56;;;;;;;11.73;4.25;;;;;;;-3.25;87.73;100895.75;5036968;28;20220;-50
2022/01/07 04:46:23;;;;;;;13.55;4.75;;;;;;;-3.21;88.31;100886.63;5038974;28;20417;-50
2022/01/07 04:48:50;;;;;;;11.80;4.78;;;;;;;-3.19;88.24;100888.44;5037020;28;20612;-50
2022/01/07 04:51:18;;;;;;;11.52;5.07;;;;;;;-3.13;88.30;100884.47;5037392;28;20056;-50
2022/01/07 04:53:45;;;;;;;13.32;6.05;;;;;;;-3.10;88.32;100879.59;5035541;28;20068;-50
2022/01/07 04:56:13;;;;;;;18.05;5.60;;;;;;;-3.06;88.43;100876.41;5036287;28;20501;-49
2022/01/07 04:58:40;;;;;;;11.43;6.05;;;;;;;-3.04;88.48;100879.88;5036864;28;20062;-50
2022/01/07 05:01:08;;;;;;;14.32;5.88;;;;;;;-3.01;88.03;100880.03;5036349;28;20091;-50
2022/01/07 05:03:35;;;;;;;13.43;5.97;;;;;;;-2.97;88.04;100881.91;5036072;28;20048;-49
2022/01/07 05:06:18;;;;;;;16.48;5.65;;;;;;;-2.95;87.97;100880.31;5038208;28;20057;-49
2022/01/07 05:08:45;;;;;;;12.23;5.20;;;;;;;-2.90;87.77;100878.88;5033824;28;20405;-50
2022/01/07 05:11:13;;;;;;;13.68;5.07;;;;;;;-2.85;87.82;100892.63;5037384;28;20055;-50
2022/01/07 05:13:41;;;;;;;12.02;5.35;;;;;;;-2.82;87.86;100882.63;5034925;28;20068;-49
2022/01/07 05:16:08;;;;;;;10.98;5.15;;;;;;;-2.79;87.25;100880.25;5036379;28;20529;-50
2022/01/07 05:18:35;;;;;;;13.00;4.53;;;;;;;-2.76;87.75;100876.97;5034802;28;20497;-52
2022/01/07 05:21:02;;;;;;;10.60;4.47;;;;;;;-2.75;87.16;100874.50;5033682;28;20390;-53
2022/01/07 05:23:29;;;;;;;11.25;4.95;;;;;;;-2.72;86.94;100876.31;5034926;28;20068;-52
2022/01/07 05:25:56;;;;;;;13.75;5.60;;;;;;;-2.71;87.00;100885.69;5036711;28;20391;-50
2022/01/07 05:28:25;;;;;;;12.55;5.47;;;;;;;-2.68;86.65;100871.47;5036688;28;20042;-50
2022/01/07 05:30:52;;;;;;;11.57;5.22;;;;;;;-2.69;86.16;100874.81;5036330;28;20104;-50
2022/01/07 05:33:19;;;;;;;12.65;5.25;;;;;;;-2.66;85.97;100876.59;5034624;28;20060;-50
2022/01/07 05:35:46;;;;;;;12.90;4.90;;;;;;;-2.65;85.95;100873.28;5034684;28;20064;-50
2022/01/07 05:38:13;;;;;;;17.13;5.15;;;;;;;-2.64;86.12;100870.81;5035466;28;20056;-50
2022/01/07 05:40:40;;;;;;;11.80;4.53;;;;;;;-2.62;85.39;100861.59;5034464;28;20084;-50
2022/01/07 05:43:07;;;;;;;11.52;4.78;;;;;;;-2.65;85.35;100876.69;5035667;28;20060;-51
2022/01/07 05:45:36;;;;;;;13.15;5.07;;;;;;;-2.63;85.59;100872.53;5033563;28;20162;-49
2022/01/07 05:48:04;;;;;;;13.02;5.40;;;;;;;-2.63;85.13;100879.28;5034134;28;20045;-50
2022/01/07 05:50:31;;;;;;;11.45;4.90;;;;;;;-2.64;85.34;100878.41;5034940;28;20121;-49
2022/01/07 05:52:58;;;;;;;12.95;4.65;;;;;;;-2.65;84.87;100875.81;5034912;28;20057;-49
2022/01/07 05:55:26;;;;;;;10.27;4.57;;;;;;;-2.67;84.60;100880.81;5034164;28;20057;-51
2022/01/07 05:57:53;;;;;;;13.05;4.05;;;;;;;-2.68;84.90;100881.63;5038324;28;20052;-50
2022/01/07 06:00:20;;;;;;;16.83;5.55;;;;;;;-2.69;84.96;100879.88;5036157;28;20053;-51
2022/01/07 06:02:49;;;;;;;10.52;4.25;;;;;;;-2.71;84.77;100878.94;5037676;28;20489;-49
2022/01/07 06:05:16;;;;;;;11.43;4.55;;;;;;;-2.71;84.69;100876.41;5035656;28;20411;-50
2022/01/07 06:07:43;;;;;;;12.93;5.15;;;;;;;-2.73;84.74;100878.00;5036048;28;20469;-49
2022/01/07 06:10:10;;;;;;;10.32;4.15;;;;;;;-2.72;84.96;100873.78;5037601;28;20082;-49
2022/01/07 06:12:38;;;;;;;15.23;4.38;;;;;;;-2.73;85.08;100874.59;5040671;28;20505;-48
2022/01/07 06:15:06;;;;;;;9.68;4.13;;;;;;;-2.75;84.83;100866.91;5034374;28;20646;-49
2022/01/07 06:17:34;;;;;;;12.93;4.10;;;;;;;-2.77;84.81;100878.66;5040734;28;20052;-50
2022/01/07 06:20:02;;;;;;;12.43;5.32;;;;;;;-2.78;85.12;100868.44;5036675;28;20053;-49
2022/01/07 06:22:29;;;;;;;9.43;4.47;;;;;;;-2.82;85.15;100871.63;5036237;28;20049;-49
2022/01/07 06:24:56;;;;;;;11.85;4.60;;;;;;;-2.84;85.23;100866.47;5035259;28;20593;-50
2022/01/07 06:27:24;;;;;;;8.48;4.47;;;;;;;-2.86;85.38;100866.41;5035025;28;20056;-49
2022/01/07 06:29:51;;;;;;;11.32;4.50;;;;;;;-2.86;85.33;100871.47;5036537;28;20049;-50
2022/01/07 06:32:18;;;;;;;11.82;4.68;;;;;;;-2.86;85.49;100878.22;5043911;28;20048;-49
2022/01/07 06:34:45;;;;;;;15.35;5.85;;;;;;;-2.87;85.88;100884.09;5038048;28;20512;-50
2022/01/07 06:37:14;;;;;;;15.40;5.43;;;;;;;-2.89;85.19;100875.53;5032829;28;20338;-50
2022/01/07 06:39:41;;;;;;;12.75;4.65;;;;;;;-2.91;85.24;100875.47;5034200;28;20063;-49
2022/01/07 06:42:08;;;;;;;13.02;6.03;;;;;;;-2.90;85.44;100878.88;5033912;28;20052;-49
2022/01/07 06:44:36;;;;;;;15.20;5.68;;;;;;;-2.88;85.50;100883.22;5033918;28;20053;-49
2022/01/07 06:47:04;;;;;;;19.02;6.20;;;;;;;-2.87;85.41;100884.09;5038098;28;20072;-49
2022/01/07 06:49:31;;;;;;;18.63;7.10;;;;;;;-2.86;85.91;100885.81;5039747;28;20478;-50
2022/01/07 06:51:58;;;;;;;12.15;6.22;;;;;;;-2.87;85.90;100894.22;5039573;28;20721;-49
2022/01/07 06:54:27;;;;;;;23.50;9.07;;;;;;;-2.88;85.71;100888.28;5034545;28;20105;-50
2022/01/07 06:56:55;;;;;;;14.75;5.93;;;;;;;-2.91;85.45;100887.28;5037188;28;20060;-49
2022/01/07 06:59:22;;;;;;;11.75;5.25;;;;;;;-2.94;85.80;100887.13;5044137;28;20056;-51
2022/01/07 07:01:49;;;;;;;15.40;6.22;;;;;;;-2.95;86.65;100880.31;5035919;28;20110;-49
2022/01/07 07:04:17;;;;;;;12.40;5.10;;;;;;;-2.98;86.98;100883.56;5034793;28;20048;-52
2022/01/07 07:06:45;;;;;;;13.02;6.03;;;;;;;-2.96;87.24;100883.66;5031372;28;20060;-54
2022/01/07 07:09:12;;;;;;;13.68;5.97;;;;;;;-2.94;88.22;100882.94;5034309;28;20049;-57
2022/01/07 07:11:43;;;;;;;15.90;6.72;;;;;;;-2.89;88.71;100886.56;5035184;28;20077;-49
2022/01/07 07:14:11;;;;;;;17.33;7.25;;;;;;;-2.86;88.56;100884.16;5034447;28;20130;-51
2022/01/07 07:16:38;;;;;;;20.42;6.78;;;;;;;-2.79;88.72;100887.84;5037169;28;20048;-49
2022/01/07 07:19:06;;;;;;;15.85;7.40;;;;;;;-2.77;89.37;100881.19;5034238;28;20052;-48
2022/01/07 07:21:33;;;;;;;16.27;7.68;;;;;;;-2.76;89.12;100882.91;5038901;28;20059;-48
2022/01/07 07:24:00;;;;;;;20.55;7.50;;;;;;;-2.72;89.31;100884.81;5035227;28;20048;-47
2022/01/07 07:26:27;;;;;;;24.02;9.63;;;;;;;-2.68;89.18;100879.06;5037718;28;20060;-48
2022/01/07 07:28:56;;;;;;;20.10;7.70;;;;;;;-2.62;89.34;100881.91;5035420;28;20104;-48
2022/01/07 07:31:23;;;;;;;17.27;7.25;;;;;;;-2.59;89.15;100887.16;5037755;28;20393;-48
2022/01/07 07:34:19;;;;;;;20.00;7.72;;;;;;;-2.57;88.72;100875.41;5033546;28;20453;-48
2022/01/07 07:36:46;;;;;;;21.13;8.38;;;;;;;-2.51;89.06;100884.09;5040059;28;20406;-46
2022/01/07 07:39:15;;;;;;;16.75;7.22;;;;;;;-2.48;89.32;100879.16;5035852;28;20045;-46
2022/01/07 07:41:43;;;;;;;20.40;7.10;;;;;;;-2.46;88.67;100877.56;5035477;28;20421;-51
2022/01/07 07:44:12;;;;;;;22.20;8.35;;;;;;;-2.42;88.97;100869.28;5034654;28;20052;-52
2022/01/07 07:46:40;;;;;;;24.85;9.45;;;;;;;-2.39;89.19;100871.97;5036543;28;20126;-54
2022/01/07 07:49:09;;;;;;;21.85;8.90;;;;;;;-2.37;88.95;100878.84;5031052;28;20049;-52
2022/01/07 07:51:37;;;;;;;29.10;11.43;;;;;;;-2.33;88.95;100874.78;5033533;28;20053;-50
2022/01/07 07:54:05;;;;;;;23.60;9.63;;;;;;;-2.28;88.95;100878.38;5033434;28;20452;-48
2022/01/07 07:56:33;;;;;;;21.55;9.57;;;;;;;-2.24;88.77;100872.66;5037030;28;20448;-52
2022/01/07 07:59:00;;;;;;;20.80;8.55;;;;;;;-2.20;88.33;100887.22;5037525;28;20424;-49
2022/01/07 08:01:29;;;;;;;20.08;8.07;;;;;;;-2.16;88.39;100884.00;5035975;28;20114;-49
2022/01/07 08:03:56;;;;;;;21.40;8.27;;;;;;;-2.12;88.63;100880.81;5038420;28;20414;-47
2022/01/07 08:06:23;;;;;;;18.25;8.70;;;;;;;-2.09;88.01;100880.94;5035656;28;20049;-48
2022/01/07 08:08:50;;;;;;;23.80;8.68;;;;;;;-2.05;88.16;100881.97;5038455;28;20517;-48
2022/01/07 08:11:18;;;;;;;19.40;8.20;;;;;;;-2.04;88.54;100879.50;5043963;28;20094;-52
2022/01/07 08:16:26;;;;;;;23.58;8.27;;;;;;;-1.99;88.29;100887.34;5005357;28;20187;-50
2022/01/07 08:18:56;;;;;;;24.00;9.27;;;;;;;-1.97;88.06;100881.50;5036240;28;20051;-49
2022/01/07 08:21:26;;;;;;;20.95;8.73;;;;;;;-1.95;88.02;100879.91;5034859;28;20057;-48
2022/01/07 08:23:54;;;;;;;22.40;9.68;;;;;;;-1.93;88.21;100875.75;5036476;28;20080;-50
2022/01/07 08:26:23;;;;;;;22.55;9.30;;;;;;;-1.93;88.17;100877.44;5033478;28;20560;-52
2022/01/07 08:28:53;;;;;;;24.35;12.10;;;;;;;-1.88;88.29;100875.09;5032083;28;20068;-50
2022/01/07 08:34:52;;;;;;;25.50;11.45;;;;;;;-1.84;88.39;100876.97;5033591;28;20789;-48
2022/01/07 08:37:00;;;;;;;24.50;9.75;;;;;;;-1.79;87.97;100876.38;5038654;28;20111;-49
2022/01/07 08:39:27;;;;;;;22.10;9.77;;;;;;;-1.75;88.27;100867.19;5035005;28;20063;-47
2022/01/07 08:41:55;;;;;;;23.20;8.93;;;;;;;-1.73;87.92;100866.47;5034830;28;20061;-47
2022/01/07 08:44:25;;;;;;;25.00;9.73;;;;;;;-1.70;87.89;100868.25;5034371;28;20793;-46
2022/01/07 08:46:53;;;;;;;29.35;11.63;;;;;;;-1.68;88.34;100859.03;5033643;28;20148;-46
2022/01/07 08:49:22;;;;;;;24.15;10.07;;;;;;;-1.68;87.91;100859.03;5033839;28;20064;-48
2022/01/07 08:51:49;;;;;;;21.75;10.23;;;;;;;-1.65;88.17;100859.16;5034619;28;20080;-47
2022/01/07 08:54:16;;;;;;;31.00;9.88;;;;;;;-1.62;88.21;100865.25;5035267;28;20419;-46
2022/01/07 08:56:44;;;;;;;28.05;11.25;;;;;;;-1.60;88.18;100865.31;5033790;28;20064;-49
2022/01/07 08:59:11;;;;;;;24.70;10.05;;;;;;;-1.56;88.40;100864.66;5033649;28;20045;-47
2022/01/07 09:01:38;;;;;;;23.27;9.77;;;;;;;-1.51;88.23;100868.25;5032840;28;20045;-47
2022/01/07 09:04:05;;;;;;;28.42;10.95;;;;;;;-1.46;88.16;100871.00;5038877;28;20052;-57
2022/01/07 09:06:34;;;;;;;20.45;8.95;;;;;;;-1.40;87.88;100867.03;5037217;28;20067;-51
2022/01/07 09:09:02;;;;;;;21.52;10.40;;;;;;;-1.34;87.63;100872.38;5034840;28;20705;-51
2022/01/07 09:11:29;;;;;;;25.27;9.57;;;;;;;-1.28;87.98;100867.53;5036623;28;20068;-51
2022/01/07 09:13:58;;;;;;;28.80;10.52;;;;;;;-1.19;87.24;100871.25;5031053;28;20052;-52
2022/01/07 09:16:26;;;;;;;27.02;11.52;;;;;;;-1.13;87.50;100876.59;5037022;28;20053;-52
2022/01/07 09:18:53;;;;;;;29.35;12.40;;;;;;;-1.05;87.20;100867.59;5028867;28;20048;-55
2022/01/07 09:21:21;;;;;;;21.42;10.00;;;;;;;-1.00;86.78;100869.56;5034077;28;20048;-54
2022/01/07 09:23:50;;;;;;;23.50;10.93;;;;;;;-0.94;86.55;100858.75;5035220;28;20063;-51
2022/01/07 09:26:17;;;;;;;26.17;10.45;;;;;;;-0.87;86.14;100863.25;5032276;28;20051;-52
2022/01/07 09:28:44;;;;;;;25.27;10.82;;;;;;;-0.82;85.82;100863.44;5031817;28;20433;-49
2022/01/07 09:31:13;;;;;;;20.40;9.55;;;;;;;-0.82;85.73;100864.31;5036471;28;20409;-46
2022/01/07 09:33:41;;;;;;;27.80;9.88;;;;;;;-0.81;85.63;100860.09;5030784;28;20490;-45
2022/01/07 09:36:08;;;;;;;24.67;9.98;;;;;;;-0.78;85.75;100856.00;5029355;28;20057;-49
2022/01/07 09:38:35;;;;;;;26.23;10.18;;;;;;;-0.78;85.87;100858.53;5031646;28;20053;-47
2022/01/07 09:41:05;;;;;;;22.63;10.23;;;;;;;-0.77;85.81;100857.72;5032857;28;20055;-47
2022/01/07 09:43:32;;;;;;;22.98;10.32;;;;;;;-0.73;85.86;100858.72;5020170;28;20067;-47
2022/01/07 09:46:00;;;;;;;26.58;10.48;;;;;;;-0.73;86.01;100858.72;5029883;28;20045;-49
2022/01/07 09:48:27;;;;;;;23.40;9.98;;;;;;;-0.61;86.22;100861.72;5024656;28;21858;-50
2022/01/07 09:50:54;;;;;;;31.02;11.25;;;;;;;-0.58;86.02;100854.19;5026213;28;20052;-50
2022/01/07 09:53:23;;;;;;;26.00;10.82;;;;;;;-0.57;85.65;100855.06;5028524;28;20057;-51
2022/01/07 09:55:50;;;;;;;29.42;11.05;;;;;;;-0.57;85.32;100855.06;5031737;28;20423;-50
2022/01/07 09:58:18;;;;;;;25.52;11.52;;;;;;;-0.55;85.53;100843.25;5034990;28;20478;-50
2022/01/07 10:00:47;;;;;;;26.75;11.55;;;;;;;-0.53;85.67;100851.84;5032334;28;20068;-51
2022/01/07 10:03:16;;;;;;;27.52;12.20;;;;;;;-0.52;85.69;100840.84;5030243;28;20057;-47
2022/01/07 10:05:45;;;;;;;30.65;11.85;;;;;;;-0.49;85.60;100848.63;5031435;28;20052;-47
2022/01/07 10:08:24;;;;;;;28.05;11.95;;;;;;;-0.46;85.48;100853.81;5037839;28;20053;-49
2022/01/07 10:11:16;;;;;;;25.58;11.90;;;;;;;-0.42;85.20;100850.59;5032416;28;20122;-46
2022/01/07 10:13:46;;;;;;;28.83;11.63;;;;;;;-0.40;85.24;100846.41;5031175;28;20513;-46
2022/01/07 10:16:16;;;;;;;30.85;12.85;;;;;;;-0.40;84.93;100843.88;5040695;28;20052;-50
2022/01/07 10:18:44;;;;;;;29.30;10.98;;;;;;;-0.36;85.37;100840.63;5033179;28;20057;-47
2022/01/07 10:21:12;;;;;;;32.70;13.95;;;;;;;-0.35;85.02;100838.13;5033710;28;20068;-47
2022/01/07 10:23:39;;;;;;;27.55;11.32;;;;;;;-0.31;84.97;100844.22;5032563;28;20053;-47
2022/01/07 10:26:15;;;;;;;28.55;12.60;;;;;;;-0.30;84.96;100845.94;5033339;28;20052;-47
2022/01/07 10:28:42;;;;;;;35.53;14.90;;;;;;;-0.28;85.25;100843.44;5031599;28;20111;-48
2022/01/07 10:31:19;;;;;;;30.40;12.57;;;;;;;-0.28;85.65;100844.31;5033459;28;20052;-47
2022/01/07 10:33:49;;;;;;;36.65;13.52;;;;;;;-0.31;85.48;100844.22;5031652;28;20641;-49
2022/01/07 10:36:18;;;;;;;36.25;12.50;;;;;;;-0.34;85.68;100844.97;5037818;28;20485;-51
2022/01/07 10:38:51;;;;;;;33.10;13.38;;;;;;;-0.36;85.59;100840.63;5035736;28;20056;-49
2022/01/07 10:41:20;;;;;;;32.97;13.57;;;;;;;-0.36;85.70;100845.72;5034999;28;20041;-48
2022/01/07 10:43:49;;;;;;;34.83;14.48;;;;;;;-0.34;85.86;100841.53;5034824;28;20055;-53
2022/01/07 10:46:24;;;;;;;34.13;15.15;;;;;;;-0.30;85.86;100845.94;5031243;28;20052;-51
2022/01/07 10:48:54;;;;;;;30.08;14.10;;;;;;;-0.28;85.59;100839.22;5033276;28;20045;-56
2022/01/07 10:51:24;;;;;;;35.95;14.52;;;;;;;-0.24;85.58;100835.09;5033050;28;20037;-51
2022/01/07 10:53:54;;;;;;;35.85;15.07;;;;;;;-0.23;85.31;100830.06;5035917;28;20510;-47
2022/01/07 10:56:23;;;;;;;34.33;14.80;;;;;;;-0.22;85.00;100829.25;5032144;28;20049;-46
2022/01/07 10:59:03;;;;;;;29.92;13.20;;;;;;;-0.20;85.04;100822.53;5037540;28;20066;-48
2022/01/07 11:01:41;;;;;;;43.45;14.82;;;;;;;-0.13;85.04;100814.28;5035319;28;20049;-48
2022/01/07 11:04:10;;;;;;;26.45;13.15;;;;;;;-0.08;84.36;100814.47;5037628;28;20057;-47
2022/01/07 11:06:40;;;;;;;28.70;12.38;;;;;;;-0.06;84.01;100816.25;5033513;28;20498;-46
2022/01/07 11:09:10;;;;;;;27.00;11.93;;;;;;;-0.02;83.89;100807.91;5034806;28;20533;-47
2022/01/07 11:11:52;;;;;;;26.52;11.52;;;;;;;0.02;84.09;100813.13;5034072;28;20045;-50
2022/01/07 11:14:22;;;;;;;26.17;11.88;;;;;;;0.04;83.40;100817.47;5031827;28;20045;-46
2022/01/07 11:16:51;;;;;;;28.15;13.48;;;;;;;0.08;83.74;100818.44;5033315;28;20053;-48
2022/01/07 11:19:27;;;;;;;33.25;13.20;;;;;;;0.07;83.63;100811.63;5036454;28;20041;-47
2022/01/07 11:21:56;;;;;;;28.92;11.55;;;;;;;0.08;83.40;100808.25;5041400;28;20049;-47
2022/01/07 11:24:35;;;;;;;23.77;11.07;;;;;;;0.09;83.39;100807.44;5043276;28;20064;-50
2022/01/07 11:27:04;;;;;;;24.63;11.35;;;;;;;0.13;83.09;100811.81;5041928;28;20057;-46
2022/01/07 11:29:31;;;;;;;25.88;11.57;;;;;;;0.18;83.04;100805.19;5036230;28;20060;-47